createdAt,value
2019-03-08T00:00:13.557Z,6.27
2019-03-08T00:01:13.440Z,6.24
2019-03-08T00:02:13.335Z,6.19
2019-03-08T00:03:13.239Z,6.16
2019-03-08T00:04:13.137Z,6.27
2019-03-08T00:05:13.159Z,6.24
2019-03-08T00:06:12.937Z,6.21
2019-03-08T00:07:12.840Z,6.17
2019-03-08T00:08:12.741Z,6.17
2019-03-08T00:09:12.668Z,6.19
2019-03-08T00:10:12.559Z,6.24
2019-03-08T00:11:12.440Z,6.38
2019-03-08T00:12:12.444Z,6.27
2019-03-08T00:13:12.245Z,6.35
2019-03-08T00:14:12.141Z,6.21
2019-03-08T00:15:12.056Z,6.27
2019-03-08T00:16:11.939Z,6.27
2019-03-08T00:17:11.844Z,6.27
2019-03-08T00:18:11.745Z,6.28
2019-03-08T00:19:11.745Z,6.19
2019-03-08T00:20:11.557Z,6.32
2019-03-08T00:21:11.441Z,6.24
2019-03-08T00:22:11.343Z,6.27
2019-03-08T00:23:11.242Z,6.20
2019-03-08T00:24:11.142Z,6.20
2019-03-08T00:25:11.059Z,6.20
2019-03-08T00:26:11.042Z,6.25
2019-03-08T00:27:10.846Z,6.14
2019-03-08T00:28:10.748Z,6.14
2019-03-08T00:29:10.647Z,6.20
2019-03-08T00:30:10.558Z,6.13
2019-03-08T00:31:10.441Z,6.24
2019-03-08T00:32:10.343Z,6.28
2019-03-08T00:33:10.348Z,6.21
2019-03-08T00:34:10.143Z,6.30
2019-03-08T00:35:10.061Z,6.20
2019-03-08T00:36:09.946Z,6.19
2019-03-08T00:37:09.845Z,6.28
2019-03-08T00:38:09.746Z,6.17
2019-03-08T00:39:09.659Z,6.28
2019-03-08T00:40:09.663Z,6.30
2019-03-08T00:41:09.446Z,6.28
2019-03-08T00:42:09.348Z,6.27
2019-03-08T00:43:09.245Z,6.25
2019-03-08T00:44:09.148Z,6.24
2019-03-08T00:45:09.067Z,6.24
2019-03-08T00:46:08.947Z,6.21
2019-03-08T00:47:08.957Z,6.21
2019-03-08T00:48:08.752Z,6.27
2019-03-08T00:49:08.649Z,6.21
2019-03-08T00:50:08.567Z,6.11
2019-03-08T00:51:08.459Z,6.25
2019-03-08T00:52:08.353Z,6.17
2019-03-08T00:53:08.378Z,6.08
2019-03-08T00:54:08.160Z,5.92
2019-03-08T00:55:08.070Z,5.80
2019-03-08T00:56:07.955Z,5.65
2019-03-08T00:57:07.853Z,5.66
2019-03-08T00:58:07.754Z,5.52
2019-03-08T00:59:07.653Z,5.51
2019-03-08T01:00:07.570Z,5.37
2019-03-08T01:01:07.557Z,5.47
2019-03-08T01:02:07.356Z,5.40
2019-03-08T01:03:07.258Z,5.37
2019-03-08T01:04:07.155Z,5.37
2019-03-08T01:05:07.058Z,5.33
2019-03-08T01:06:06.986Z,5.73
2019-03-08T01:07:07.006Z,5.73
2019-03-08T01:08:06.758Z,5.78
2019-03-08T01:09:06.660Z,5.88
2019-03-08T01:10:06.577Z,5.88
2019-03-08T01:11:06.470Z,5.87
2019-03-08T01:12:06.359Z,5.85
2019-03-08T01:13:06.259Z,5.81
2019-03-08T01:14:06.158Z,5.65
2019-03-08T01:15:06.063Z,5.59
2019-03-08T01:16:05.977Z,5.59
2019-03-08T01:17:05.861Z,5.49
2019-03-08T01:18:05.759Z,5.33
2019-03-08T01:19:05.659Z,5.45
2019-03-08T01:20:05.561Z,5.44
2019-03-08T01:21:05.480Z,5.30
2019-03-08T01:22:05.363Z,5.33
2019-03-08T01:23:05.264Z,5.35
2019-03-08T01:24:05.164Z,5.44
2019-03-08T01:25:05.063Z,5.37
2019-03-08T01:26:04.976Z,5.35
2019-03-08T01:27:04.861Z,5.45
2019-03-08T01:28:04.764Z,5.49
2019-03-08T01:29:04.665Z,5.60
2019-03-08T01:30:04.573Z,5.56
2019-03-08T01:31:04.480Z,5.58
2019-03-08T01:32:05.544Z,5.67
2019-03-08T01:33:04.281Z,5.88
2019-03-08T01:34:04.163Z,5.93
2019-03-08T01:35:04.081Z,6.02
2019-03-08T01:36:03.981Z,6.02
2019-03-08T01:37:03.867Z,6.03
2019-03-08T01:38:03.767Z,6.14
2019-03-08T01:39:03.667Z,6.14
2019-03-08T01:40:03.564Z,6.11
2019-03-08T01:41:03.482Z,6.10
2019-03-08T01:42:03.372Z,6.21
2019-03-08T01:43:03.266Z,6.10
2019-03-08T01:44:03.171Z,6.17
2019-03-08T01:45:03.837Z,6.11
2019-03-08T01:46:02.985Z,6.14
2019-03-08T01:47:02.870Z,6.20
2019-03-08T01:48:02.774Z,6.28
2019-03-08T01:49:02.668Z,6.30
2019-03-08T01:50:02.575Z,6.25
2019-03-08T01:51:02.490Z,6.30
2019-03-08T01:52:02.370Z,6.36
2019-03-08T01:53:02.275Z,6.38
2019-03-08T01:54:02.188Z,6.32
2019-03-08T01:55:02.078Z,6.38
2019-03-08T01:56:01.988Z,6.42
2019-03-08T01:57:01.875Z,6.32
2019-03-08T01:58:01.773Z,6.43
2019-03-08T01:59:01.673Z,6.43
2019-03-08T02:00:01.573Z,6.35
2019-03-08T02:01:01.489Z,6.46
2019-03-08T02:02:01.374Z,6.42
2019-03-08T02:03:01.277Z,6.45
2019-03-08T02:04:01.175Z,6.35
2019-03-08T02:05:01.077Z,6.35
2019-03-08T02:06:00.994Z,6.32
2019-03-08T02:07:00.875Z,6.40
2019-03-08T02:08:00.775Z,6.36
2019-03-08T02:09:00.679Z,6.38
2019-03-08T02:10:00.686Z,6.33
2019-03-08T02:11:00.498Z,6.33
2019-03-08T02:12:00.378Z,6.39
2019-03-08T02:13:00.285Z,6.32
2019-03-08T02:14:00.182Z,6.36
2019-03-08T02:15:00.094Z,6.39
2019-03-08T02:15:59.997Z,6.39
2019-03-08T02:16:59.984Z,6.35
2019-03-08T02:17:59.781Z,6.43
2019-03-08T02:18:59.686Z,6.43
2019-03-08T02:19:59.593Z,6.42
2019-03-08T02:21:06.437Z,6.48
2019-03-08T02:21:59.383Z,6.36
2019-03-08T02:22:59.284Z,6.50
2019-03-08T02:23:59.195Z,6.45
2019-03-08T02:24:59.087Z,6.51
2019-03-08T02:25:59.007Z,6.39
2019-03-08T02:26:58.892Z,6.36
2019-03-08T02:27:58.805Z,6.38
2019-03-08T02:28:58.691Z,6.46
2019-03-08T02:29:58.592Z,6.42
2019-03-08T02:30:58.507Z,6.43
2019-03-08T02:31:58.398Z,6.40
2019-03-08T02:32:58.294Z,6.50
2019-03-08T02:33:58.195Z,6.40
2019-03-08T02:34:58.095Z,6.46
2019-03-08T02:35:58.011Z,6.42
2019-03-08T02:36:57.898Z,6.51
2019-03-08T02:37:57.795Z,6.55
2019-03-08T02:38:57.704Z,6.53
2019-03-08T02:39:57.597Z,6.51
2019-03-08T02:40:57.540Z,6.55
2019-03-08T02:41:57.401Z,6.48
2019-03-08T02:42:57.303Z,6.51
2019-03-08T02:43:57.202Z,6.55
2019-03-08T02:44:57.100Z,6.54
2019-03-08T02:45:57.019Z,6.46
2019-03-08T02:46:56.901Z,6.51
2019-03-08T02:47:56.807Z,6.50
2019-03-08T02:48:56.707Z,6.50
2019-03-08T02:49:56.602Z,6.55
2019-03-08T02:50:56.546Z,6.40
2019-03-08T02:51:56.435Z,6.50
2019-03-08T02:52:56.318Z,6.35
2019-03-08T02:53:56.206Z,6.42
2019-03-08T02:54:56.110Z,6.46
2019-03-08T02:55:56.033Z,6.45
2019-03-08T02:56:55.910Z,6.33
2019-03-08T02:57:55.810Z,6.40
2019-03-08T02:58:55.709Z,6.43
2019-03-08T02:59:55.611Z,6.43
2019-03-08T03:00:55.512Z,6.53
2019-03-08T03:01:55.431Z,6.53
2019-03-08T03:02:55.310Z,6.40
2019-03-08T03:03:55.216Z,6.46
2019-03-08T03:04:55.116Z,6.54
2019-03-08T03:05:55.017Z,6.45
2019-03-08T03:06:55.140Z,6.53
2019-03-08T03:07:54.820Z,6.53
2019-03-08T03:08:54.719Z,6.55
2019-03-08T03:09:54.617Z,6.50
2019-03-08T03:10:54.521Z,6.51
2019-03-08T03:11:54.433Z,6.53
2019-03-08T03:12:54.319Z,6.57
2019-03-08T03:13:54.327Z,6.50
2019-03-08T03:14:54.119Z,6.61
2019-03-08T03:15:54.031Z,6.54
2019-03-08T03:16:53.937Z,6.58
2019-03-08T03:17:53.824Z,6.54
2019-03-08T03:18:53.722Z,6.54
2019-03-08T03:19:53.622Z,6.64
2019-03-08T03:20:53.625Z,6.72
2019-03-08T03:21:53.442Z,6.65
2019-03-08T03:22:53.324Z,6.53
2019-03-08T03:23:53.228Z,6.55
2019-03-08T03:24:53.126Z,6.54
2019-03-08T03:25:53.029Z,6.55
2019-03-08T03:26:52.947Z,6.68
2019-03-08T03:27:52.929Z,6.57
2019-03-08T03:28:52.732Z,6.60
2019-03-08T03:29:52.629Z,6.64
2019-03-08T03:30:52.537Z,6.60
2019-03-08T03:31:52.453Z,6.65
2019-03-08T03:32:52.345Z,6.65
2019-03-08T03:33:52.235Z,6.63
2019-03-08T03:34:52.243Z,6.69
2019-03-08T03:35:52.040Z,6.73
2019-03-08T03:36:51.955Z,6.69
2019-03-08T03:37:51.834Z,6.72
2019-03-08T03:38:51.737Z,6.65
2019-03-08T03:39:51.635Z,6.61
2019-03-08T03:40:51.557Z,6.61
2019-03-08T03:41:51.557Z,6.68
2019-03-08T03:42:51.337Z,6.61
2019-03-08T03:43:51.241Z,6.63
2019-03-08T03:44:51.143Z,6.63
2019-03-08T03:45:51.037Z,6.60
2019-03-08T03:46:50.955Z,6.61
2019-03-08T03:47:50.842Z,6.57
2019-03-08T03:48:50.842Z,6.60
2019-03-08T03:49:50.644Z,6.71
2019-03-08T03:50:50.542Z,6.65
2019-03-08T03:51:50.461Z,6.60
2019-03-08T03:52:50.346Z,6.65
2019-03-08T03:53:50.247Z,6.75
2019-03-08T03:54:50.149Z,6.68
2019-03-08T03:55:50.145Z,6.72
2019-03-08T03:56:49.971Z,6.63
2019-03-08T03:57:49.847Z,6.72
2019-03-08T03:58:49.749Z,6.71
2019-03-08T03:59:49.651Z,6.72
2019-03-08T04:00:49.552Z,6.75
2019-03-08T04:01:49.465Z,6.78
2019-03-08T04:02:49.465Z,6.75
2019-03-08T04:03:49.256Z,6.75
2019-03-08T04:04:49.157Z,6.82
2019-03-08T04:05:49.058Z,6.79
2019-03-08T04:06:48.971Z,6.90
2019-03-08T04:07:48.854Z,6.78
2019-03-08T04:08:48.755Z,6.75
2019-03-08T04:09:48.657Z,6.89
2019-03-08T04:10:48.562Z,6.78
2019-03-08T04:11:48.494Z,6.72
2019-03-08T04:12:48.362Z,6.75
2019-03-08T04:13:48.258Z,6.75
2019-03-08T04:14:48.162Z,6.83
2019-03-08T04:15:48.059Z,6.79
2019-03-08T04:16:47.978Z,6.69
2019-03-08T04:17:47.863Z,6.72
2019-03-08T04:18:47.762Z,6.73
2019-03-08T04:19:47.665Z,6.73
2019-03-08T04:20:47.569Z,6.76
2019-03-08T04:21:47.485Z,6.89
2019-03-08T04:22:47.366Z,6.89
2019-03-08T04:23:47.270Z,6.86
2019-03-08T04:24:47.172Z,6.82
2019-03-08T04:25:47.070Z,6.86
2019-03-08T04:26:46.998Z,6.79
2019-03-08T04:27:46.871Z,6.82
2019-03-08T04:28:46.779Z,6.71
2019-03-08T04:29:46.673Z,6.73
2019-03-08T04:30:46.573Z,6.75
2019-03-08T04:31:46.491Z,6.83
2019-03-08T04:32:46.374Z,6.91
2019-03-08T04:33:46.277Z,6.82
2019-03-08T04:34:46.176Z,6.79
2019-03-08T04:35:46.081Z,6.76
2019-03-08T04:36:45.999Z,6.75
2019-03-08T04:37:45.880Z,6.79
2019-03-08T04:38:45.779Z,6.89
2019-03-08T04:39:45.680Z,6.78
2019-03-08T04:40:45.584Z,6.71
2019-03-08T04:41:45.489Z,6.90
2019-03-08T04:42:45.399Z,6.78
2019-03-08T04:43:45.285Z,6.78
2019-03-08T04:44:45.185Z,6.83
2019-03-08T04:45:45.082Z,6.82
2019-03-08T04:46:45.004Z,6.87
2019-03-08T04:47:44.903Z,6.81
2019-03-08T04:48:44.790Z,6.79
2019-03-08T04:49:44.686Z,6.89
2019-03-08T04:50:44.594Z,6.73
2019-03-08T04:51:44.497Z,6.75
2019-03-08T04:52:44.407Z,6.72
2019-03-08T04:53:44.292Z,6.75
2019-03-08T04:54:44.193Z,6.79
2019-03-08T04:55:44.096Z,6.76
2019-03-08T04:56:43.995Z,6.72
2019-03-08T04:57:43.922Z,6.72
2019-03-08T04:58:43.797Z,6.93
2019-03-08T04:59:43.712Z,6.93
2019-03-08T05:00:43.597Z,6.91
2019-03-08T05:01:43.499Z,6.81
2019-03-08T05:02:43.415Z,6.78
2019-03-08T05:03:43.300Z,6.91
2019-03-08T05:04:43.203Z,6.90
2019-03-08T05:05:43.101Z,6.79
2019-03-08T05:06:43.003Z,6.76
2019-03-08T05:07:42.919Z,6.72
2019-03-08T05:08:42.803Z,6.89
2019-03-08T05:09:42.703Z,6.91
2019-03-08T05:10:42.605Z,6.75
2019-03-08T05:11:42.510Z,6.79
2019-03-08T05:12:42.424Z,6.78
2019-03-08T05:13:42.309Z,6.79
2019-03-08T05:14:42.208Z,6.71
2019-03-08T05:15:42.114Z,6.79
2019-03-08T05:16:42.012Z,6.78
2019-03-08T05:17:41.925Z,6.73
2019-03-08T05:18:41.810Z,6.73
2019-03-08T05:19:41.711Z,6.83
2019-03-08T05:20:41.613Z,6.91
2019-03-08T05:21:41.511Z,6.73
2019-03-08T05:22:41.434Z,6.75
2019-03-08T05:23:41.317Z,6.72
2019-03-08T05:24:41.218Z,6.78
2019-03-08T05:25:41.221Z,6.79
2019-03-08T05:26:41.016Z,6.73
2019-03-08T05:27:40.938Z,6.76
2019-03-08T05:28:40.819Z,6.75
2019-03-08T05:29:40.719Z,6.75
2019-03-08T05:30:40.620Z,6.68
2019-03-08T05:31:40.523Z,6.78
2019-03-08T05:32:40.547Z,6.65
2019-03-08T05:33:40.321Z,6.63
2019-03-08T05:34:40.225Z,6.73
2019-03-08T05:35:40.124Z,6.68
2019-03-08T05:36:40.024Z,6.60
2019-03-08T05:37:39.943Z,6.61
2019-03-08T05:38:39.826Z,6.71
2019-03-08T05:39:39.724Z,6.69
2019-03-08T05:40:39.630Z,6.61
2019-03-08T05:41:39.533Z,6.63
2019-03-08T05:42:39.445Z,6.64
2019-03-08T05:43:39.331Z,6.57
2019-03-08T05:44:39.232Z,6.61
2019-03-08T05:45:39.131Z,6.64
2019-03-08T05:46:39.141Z,6.64
2019-03-08T05:47:38.958Z,6.61
2019-03-08T05:48:38.834Z,6.61
2019-03-08T05:49:38.733Z,6.55
2019-03-08T05:50:38.638Z,6.60
2019-03-08T05:51:38.536Z,6.54
2019-03-08T05:52:38.455Z,6.55
2019-03-08T05:53:38.457Z,6.61
2019-03-08T05:54:38.237Z,6.65
2019-03-08T05:55:38.138Z,6.58
2019-03-08T05:56:38.041Z,6.63
2019-03-08T05:57:37.956Z,6.57
2019-03-08T05:58:37.842Z,6.60
2019-03-08T05:59:37.744Z,6.65
2019-03-08T06:00:37.744Z,6.61
2019-03-08T06:01:37.545Z,6.57
2019-03-08T06:02:37.459Z,6.65
2019-03-08T06:03:37.346Z,6.63
2019-03-08T06:04:37.245Z,6.57
2019-03-08T06:05:37.147Z,6.55
2019-03-08T06:06:37.045Z,6.61
2019-03-08T06:07:37.066Z,6.55
2019-03-08T06:08:36.849Z,6.63
2019-03-08T06:09:36.747Z,6.51
2019-03-08T06:10:36.651Z,6.61
2019-03-08T06:11:36.552Z,6.50
2019-03-08T06:12:36.468Z,6.61
2019-03-08T06:13:36.349Z,6.64
2019-03-08T06:14:36.369Z,6.63
2019-03-08T06:15:36.155Z,6.53
2019-03-08T06:16:36.057Z,6.50
2019-03-08T06:17:35.970Z,6.48
2019-03-08T06:18:35.856Z,6.53
2019-03-08T06:19:35.758Z,6.54
2019-03-08T06:20:35.655Z,6.53
2019-03-08T06:21:35.658Z,6.50
2019-03-08T06:22:35.474Z,6.48
2019-03-08T06:23:35.359Z,6.48
2019-03-08T06:24:35.258Z,6.51
2019-03-08T06:25:35.155Z,6.55
2019-03-08T06:26:35.058Z,6.51
2019-03-08T06:27:34.960Z,6.48
2019-03-08T06:28:34.981Z,6.46
2019-03-08T06:29:34.773Z,6.55
2019-03-08T06:30:34.663Z,6.53
2019-03-08T06:31:34.570Z,6.58
2019-03-08T06:32:34.463Z,6.55
2019-03-08T06:33:34.378Z,6.61
2019-03-08T06:34:34.266Z,6.61
2019-03-08T06:35:34.272Z,6.64
2019-03-08T06:36:34.067Z,6.73
2019-03-08T06:37:33.971Z,6.79
2019-03-08T06:38:33.884Z,6.91
2019-03-08T06:39:33.770Z,6.91
2019-03-08T06:40:33.668Z,6.90
2019-03-08T06:41:33.695Z,6.93
2019-03-08T06:42:33.471Z,6.89
2019-03-08T06:43:33.385Z,6.87
2019-03-08T06:44:33.272Z,6.87
2019-03-08T06:45:33.173Z,6.90
2019-03-08T06:46:33.072Z,6.91
2019-03-08T06:47:32.977Z,6.87
2019-03-08T06:48:32.893Z,6.90
2019-03-08T06:49:32.885Z,6.86
2019-03-08T06:50:32.681Z,6.87
2019-03-08T06:51:32.578Z,6.90
2019-03-08T06:52:32.483Z,6.78
2019-03-08T06:53:32.397Z,6.93
2019-03-08T06:54:32.282Z,6.93
2019-03-08T06:55:32.182Z,6.91
2019-03-08T06:56:32.085Z,6.93
2019-03-08T06:57:31.984Z,6.78
2019-03-08T06:58:31.903Z,6.75
2019-03-08T06:59:31.787Z,6.87
2019-03-08T07:00:31.690Z,6.93
2019-03-08T07:01:31.598Z,6.97
2019-03-08T07:02:31.495Z,6.99
2019-03-08T07:03:31.409Z,6.89
2019-03-08T07:04:31.295Z,6.89
2019-03-08T07:05:31.195Z,6.91
2019-03-08T07:06:31.098Z,7.16
2019-03-08T07:07:30.999Z,7.18
2019-03-08T07:08:30.914Z,7.33
2019-03-08T07:09:30.798Z,7.30
2019-03-08T07:10:30.701Z,7.21
2019-03-08T07:11:30.605Z,7.12
2019-03-08T07:12:30.506Z,7.16
2019-03-08T07:13:30.419Z,7.09
2019-03-08T07:14:30.308Z,7.04
2019-03-08T07:15:30.211Z,7.04
2019-03-08T07:16:30.108Z,7.04
2019-03-08T07:17:30.009Z,6.94
2019-03-08T07:18:29.929Z,6.93
2019-03-08T07:19:29.817Z,7.01
2019-03-08T07:20:29.716Z,7.05
2019-03-08T07:21:29.615Z,6.96
2019-03-08T07:22:29.519Z,6.90
2019-03-08T07:23:29.436Z,6.93
2019-03-08T07:24:29.322Z,6.89
2019-03-08T07:25:29.221Z,6.89
2019-03-08T07:26:29.125Z,6.90
2019-03-08T07:27:29.024Z,6.89
2019-03-08T07:28:28.945Z,6.93
2019-03-08T07:29:28.833Z,6.78
2019-03-08T07:30:28.725Z,6.78
2019-03-08T07:31:28.629Z,6.71
2019-03-08T07:32:28.531Z,6.76
2019-03-08T07:33:28.434Z,6.69
2019-03-08T07:34:28.351Z,6.76
2019-03-08T07:35:28.240Z,6.69
2019-03-08T07:36:28.137Z,6.63
2019-03-08T07:37:28.040Z,6.61
2019-03-08T07:38:27.942Z,6.72
2019-03-08T07:39:27.865Z,6.72
2019-03-08T07:40:27.741Z,6.72
2019-03-08T07:41:28.956Z,6.60
2019-03-08T07:42:27.543Z,6.61
2019-03-08T07:43:27.447Z,6.64
2019-03-08T07:44:27.368Z,6.55
2019-03-08T07:45:27.248Z,6.68
2019-03-08T07:46:27.149Z,6.60
2019-03-08T07:47:27.055Z,6.61
2019-03-08T07:48:26.952Z,6.61
2019-03-08T07:49:26.868Z,6.60
2019-03-08T07:50:26.754Z,6.61
2019-03-08T07:51:26.662Z,6.61
2019-03-08T07:52:26.556Z,6.73
2019-03-08T07:53:26.457Z,6.64
2019-03-08T07:54:26.375Z,6.63
2019-03-08T07:55:26.260Z,6.64
2019-03-08T07:56:26.163Z,6.68
2019-03-08T07:57:26.060Z,6.57
2019-03-08T07:58:26.609Z,6.63
2019-03-08T07:59:25.881Z,6.65
2019-03-08T08:00:25.764Z,6.61
2019-03-08T08:01:25.666Z,6.55
2019-03-08T08:02:25.567Z,6.55
2019-03-08T08:03:25.476Z,6.53
2019-03-08T08:04:25.390Z,6.51
2019-03-08T08:05:25.273Z,6.51
2019-03-08T08:06:25.171Z,6.43
2019-03-08T08:07:25.076Z,6.54
2019-03-08T08:08:24.971Z,6.55
2019-03-08T08:09:24.893Z,6.60
2019-03-08T08:10:24.776Z,6.64
2019-03-08T08:11:24.680Z,6.68
2019-03-08T08:12:24.581Z,6.71
2019-03-08T08:13:24.478Z,6.61
2019-03-08T08:14:24.396Z,6.60
2019-03-08T08:15:24.282Z,6.61
2019-03-08T08:16:24.188Z,6.68
2019-03-08T08:17:24.080Z,6.69
2019-03-08T08:18:23.983Z,6.63
2019-03-08T08:19:23.924Z,6.63
2019-03-08T08:20:23.784Z,6.63
2019-03-08T08:21:23.687Z,6.61
2019-03-08T08:22:23.587Z,6.60
2019-03-08T08:23:23.496Z,6.71
2019-03-08T08:24:23.404Z,6.60
2019-03-08T08:25:23.287Z,6.60
2019-03-08T08:26:23.187Z,6.63
2019-03-08T08:27:23.090Z,6.68
2019-03-08T08:28:22.996Z,6.63
2019-03-08T08:29:22.908Z,6.64
2019-03-08T08:30:22.792Z,6.71
2019-03-08T08:31:22.721Z,6.63
2019-03-08T08:32:22.598Z,6.73
2019-03-08T08:33:22.494Z,6.76
2019-03-08T08:34:22.819Z,6.78
2019-03-08T08:35:22.306Z,6.65
2019-03-08T08:36:22.201Z,6.89
2019-03-08T08:37:22.099Z,6.89
2019-03-08T08:38:22.002Z,6.90
2019-03-08T08:39:21.907Z,6.91
2019-03-08T08:40:21.820Z,7.00
2019-03-08T08:41:21.809Z,6.96
2019-03-08T08:42:21.609Z,7.01
2019-03-08T08:43:21.506Z,7.15
2019-03-08T08:44:21.415Z,7.05
2019-03-08T08:45:21.326Z,6.91
2019-03-08T08:46:21.214Z,6.94
2019-03-08T08:47:21.115Z,6.96
2019-03-08T08:48:21.127Z,6.97
2019-03-08T08:49:20.917Z,6.94
2019-03-08T08:50:20.832Z,6.86
2019-03-08T08:51:20.717Z,6.91
2019-03-08T08:52:20.615Z,6.87
2019-03-08T08:53:20.520Z,6.87
2019-03-08T08:54:20.420Z,6.76
2019-03-08T08:55:20.440Z,6.73
2019-03-08T08:56:20.224Z,6.69
2019-03-08T08:57:20.126Z,6.72
2019-03-08T08:58:20.026Z,6.79
2019-03-08T08:59:19.924Z,6.76
2019-03-08T09:00:19.844Z,6.71
2019-03-08T09:01:19.728Z,6.91
2019-03-08T09:02:19.739Z,6.96
2019-03-08T09:03:19.532Z,7.08
2019-03-08T09:04:19.432Z,7.08
2019-03-08T09:05:19.364Z,7.05
2019-03-08T09:06:19.232Z,7.01
2019-03-08T09:07:19.138Z,6.99
2019-03-08T09:08:19.038Z,6.91
2019-03-08T09:09:19.044Z,6.91
2019-03-08T09:10:18.854Z,6.90
2019-03-08T09:11:18.738Z,6.93
2019-03-08T09:12:18.640Z,6.75
2019-03-08T09:13:18.541Z,6.78
2019-03-08T09:14:18.441Z,6.82
2019-03-08T09:15:18.361Z,6.89
2019-03-08T09:16:18.359Z,6.93
2019-03-08T09:17:18.147Z,6.91
2019-03-08T09:18:18.047Z,6.99
2019-03-08T09:19:17.974Z,6.90
2019-03-08T09:20:17.866Z,6.96
2019-03-08T09:21:17.751Z,6.89
2019-03-08T09:22:17.775Z,6.91
2019-03-08T09:23:17.553Z,6.96
2019-03-08T09:24:17.455Z,6.90
2019-03-08T09:25:17.378Z,6.86
2019-03-08T09:26:17.257Z,6.89
2019-03-08T09:27:17.157Z,6.72
2019-03-08T09:28:17.063Z,6.76
2019-03-08T09:29:17.765Z,6.76
2019-03-08T09:30:16.980Z,6.76
2019-03-08T09:31:16.763Z,6.73
2019-03-08T09:32:16.666Z,6.64
2019-03-08T09:33:16.567Z,6.71
2019-03-08T09:34:16.467Z,6.63
2019-03-08T09:35:16.390Z,6.68
2019-03-08T09:36:16.271Z,6.73
2019-03-08T09:37:16.274Z,6.65
2019-03-08T09:38:17.488Z,6.78
2019-03-08T09:39:15.972Z,6.73
2019-03-08T09:40:15.893Z,6.63
2019-03-08T09:41:15.773Z,6.64
2019-03-08T09:42:15.675Z,6.68
2019-03-08T09:43:15.576Z,6.68
2019-03-08T09:44:15.486Z,6.65
2019-03-08T09:45:15.399Z,6.69
2019-03-08T09:46:15.281Z,6.73
2019-03-08T09:47:15.184Z,6.61
2019-03-08T09:48:15.081Z,6.72
2019-03-08T09:49:14.985Z,6.63
2019-03-08T09:50:14.886Z,6.61
2019-03-08T09:51:14.804Z,6.63
2019-03-08T09:52:14.698Z,6.60
2019-03-08T09:53:14.604Z,6.69
2019-03-08T09:54:14.487Z,6.65
2019-03-08T09:55:14.389Z,6.61
2019-03-08T09:56:14.306Z,6.71
2019-03-08T09:57:14.189Z,6.60
2019-03-08T09:58:14.089Z,6.64
2019-03-08T09:59:13.991Z,6.63
2019-03-08T10:00:13.895Z,6.53
2019-03-08T10:01:16.818Z,6.55
2019-03-08T10:02:13.695Z,6.60
2019-03-08T10:03:13.598Z,6.53
2019-03-08T10:04:13.496Z,6.48
2019-03-08T10:05:13.403Z,6.39
2019-03-08T10:06:13.321Z,6.43
2019-03-08T10:07:13.202Z,6.50
2019-03-08T10:08:13.104Z,6.50
2019-03-08T10:09:13.002Z,6.50
2019-03-08T10:10:12.905Z,6.61
2019-03-08T10:11:12.827Z,6.57
2019-03-08T10:12:12.705Z,6.58
2019-03-08T10:13:12.605Z,6.69
2019-03-08T10:14:12.505Z,6.64
2019-03-08T10:15:12.414Z,6.58
2019-03-08T10:16:12.328Z,6.72
2019-03-08T10:17:12.211Z,6.60
2019-03-08T10:18:12.109Z,6.61
2019-03-08T10:19:12.014Z,6.76
2019-03-08T10:20:11.915Z,6.79
2019-03-08T10:21:11.830Z,6.86
2019-03-08T10:22:11.714Z,6.91
2019-03-08T10:23:19.678Z,6.94
2019-03-08T10:24:11.516Z,7.01
2019-03-08T10:25:11.419Z,6.96
2019-03-08T10:26:11.338Z,6.96
2019-03-08T10:27:11.220Z,7.04
2019-03-08T10:28:11.122Z,6.90
2019-03-08T10:29:11.034Z,6.96
2019-03-08T10:30:10.926Z,7.00
2019-03-08T10:31:10.841Z,7.00
2019-03-08T10:32:10.726Z,7.04
2019-03-08T10:33:10.629Z,7.12
2019-03-08T10:34:10.528Z,7.15
2019-03-08T10:35:10.440Z,7.19
2019-03-08T10:36:10.350Z,7.21
2019-03-08T10:37:10.233Z,7.19
2019-03-08T10:38:10.137Z,7.18
2019-03-08T10:39:10.035Z,7.14
2019-03-08T10:40:09.943Z,7.15
2019-03-08T10:41:09.855Z,7.23
2019-03-08T10:42:09.760Z,7.19
2019-03-08T10:43:09.642Z,7.16
2019-03-08T10:44:11.383Z,7.16
2019-03-08T10:45:09.449Z,7.16
2019-03-08T10:46:15.483Z,7.15
2019-03-08T10:47:09.248Z,7.19
2019-03-08T10:48:09.150Z,7.26
2019-03-08T10:49:09.058Z,7.18
2019-03-08T10:50:08.953Z,7.23
2019-03-08T10:51:08.876Z,7.34
2019-03-08T10:52:17.148Z,7.36
2019-03-08T10:53:08.658Z,7.41
2019-03-08T10:54:08.562Z,7.39
2019-03-08T10:55:08.465Z,7.39
2019-03-08T10:56:08.383Z,7.27
2019-03-08T10:57:08.265Z,7.04
2019-03-08T10:58:08.167Z,7.08
2019-03-08T10:59:08.072Z,6.96
2019-03-08T11:00:08.081Z,7.09
2019-03-08T11:01:07.888Z,7.08
2019-03-08T11:02:07.774Z,7.07
2019-03-08T11:03:07.677Z,7.12
2019-03-08T11:04:07.580Z,7.07
2019-03-08T11:05:07.483Z,7.15
2019-03-08T11:06:07.398Z,7.11
2019-03-08T11:07:07.287Z,7.14
2019-03-08T11:08:08.990Z,7.24
2019-03-08T11:09:07.086Z,7.16
2019-03-08T11:10:06.989Z,7.30
2019-03-08T11:11:06.935Z,7.36
2019-03-08T11:12:06.794Z,7.37
2019-03-08T11:13:06.694Z,7.48
2019-03-08T11:14:06.702Z,7.45
2019-03-08T11:15:06.501Z,7.42
2019-03-08T11:16:06.405Z,7.50
2019-03-08T11:17:06.317Z,7.55
2019-03-08T11:18:06.205Z,7.58
2019-03-08T11:19:08.968Z,7.63
2019-03-08T11:20:06.006Z,7.60
2019-03-08T11:21:06.029Z,7.67
2019-03-08T11:22:05.830Z,7.70
2019-03-08T11:23:05.713Z,7.76
2019-03-08T11:24:05.615Z,7.69
2019-03-08T11:25:08.599Z,7.69
2019-03-08T11:26:05.417Z,7.70
2019-03-08T11:27:05.471Z,7.67
2019-03-08T11:28:05.322Z,7.66
2019-03-08T11:29:05.124Z,7.73
2019-03-08T11:30:05.026Z,7.66
2019-03-08T11:31:04.939Z,7.69
2019-03-08T11:32:04.845Z,7.74
2019-03-08T11:33:04.733Z,7.85
2019-03-08T11:34:04.635Z,7.81
2019-03-08T11:35:04.637Z,7.82
2019-03-08T11:36:04.438Z,7.74
2019-03-08T11:37:04.369Z,7.79
2019-03-08T11:38:04.243Z,7.88
2019-03-08T11:39:04.143Z,7.95
2019-03-08T11:40:04.048Z,7.99
2019-03-08T11:41:03.949Z,8.03
2019-03-08T11:42:05.215Z,7.95
2019-03-08T11:43:03.755Z,8.02
2019-03-08T11:44:03.659Z,7.92
2019-03-08T11:45:03.557Z,7.94
2019-03-08T11:46:03.464Z,7.91
2019-03-08T11:47:03.378Z,7.96
2019-03-08T11:48:03.268Z,7.89
2019-03-08T11:49:03.167Z,7.91
2019-03-08T11:50:03.068Z,7.94
2019-03-08T11:51:02.968Z,8.00
2019-03-08T11:52:02.892Z,8.06
2019-03-08T11:53:02.774Z,7.96
2019-03-08T11:54:02.680Z,8.02
2019-03-08T11:55:02.580Z,8.00
2019-03-08T11:56:02.588Z,8.10
2019-03-08T11:57:02.408Z,8.21
2019-03-08T11:58:02.289Z,8.18
2019-03-08T11:59:02.189Z,8.10
2019-03-08T12:00:02.104Z,8.13
2019-03-08T12:01:02.002Z,7.99
2019-03-08T12:02:01.913Z,7.99
2019-03-08T12:03:01.900Z,7.95
2019-03-08T12:04:01.703Z,8.00
2019-03-08T12:05:01.604Z,8.06
2019-03-08T12:06:01.508Z,8.17
2019-03-08T12:07:01.429Z,8.24
2019-03-08T12:08:01.317Z,8.46
2019-03-08T12:09:01.217Z,8.55
2019-03-08T12:10:01.239Z,8.79
2019-03-08T12:11:01.019Z,9.01
2019-03-08T12:12:00.942Z,9.24
2019-03-08T12:13:00.826Z,9.20
2019-03-08T12:14:00.728Z,9.04
2019-03-08T12:15:00.631Z,8.91
2019-03-08T12:16:00.666Z,8.97
2019-03-08T12:17:00.457Z,8.88
2019-03-08T12:18:00.341Z,8.73
2019-03-08T12:19:00.245Z,8.54
2019-03-08T12:20:00.224Z,8.45
2019-03-08T12:21:00.051Z,8.24
2019-03-08T12:21:59.972Z,8.46
2019-03-08T12:22:59.858Z,8.45
2019-03-08T12:23:59.762Z,8.50
2019-03-08T12:25:01.187Z,8.40
2019-03-08T12:25:59.569Z,8.39
2019-03-08T12:26:59.491Z,8.34
2019-03-08T12:27:59.381Z,8.18
2019-03-08T12:28:59.292Z,8.14
2019-03-08T12:29:59.184Z,7.91
2019-03-08T12:30:59.084Z,7.92
2019-03-08T12:31:58.991Z,7.86
2019-03-08T12:32:58.906Z,7.82
2019-03-08T12:33:58.796Z,7.79
2019-03-08T12:34:58.698Z,7.84
2019-03-08T12:35:58.604Z,7.71
2019-03-08T12:36:58.503Z,7.67
2019-03-08T12:37:58.421Z,7.69
2019-03-08T12:38:58.310Z,7.57
2019-03-08T12:39:58.212Z,7.55
2019-03-08T12:40:58.110Z,7.73
2019-03-08T12:41:58.025Z,7.70
2019-03-08T12:42:57.933Z,7.57
2019-03-08T12:43:57.819Z,7.62
2019-03-08T12:44:57.724Z,7.48
2019-03-08T12:45:57.627Z,7.51
2019-03-08T12:46:57.526Z,7.60
2019-03-08T12:47:57.450Z,7.57
2019-03-08T12:48:57.334Z,7.54
2019-03-08T12:49:57.236Z,7.55
2019-03-08T12:50:57.137Z,7.45
2019-03-08T12:51:57.040Z,7.48
2019-03-08T12:52:56.973Z,7.48
2019-03-08T12:53:56.842Z,7.50
2019-03-08T12:54:56.746Z,7.45
2019-03-08T12:55:56.646Z,7.48
2019-03-08T12:56:56.551Z,7.54
2019-03-08T12:57:56.480Z,7.50
2019-03-08T12:58:56.354Z,7.47
2019-03-08T12:59:56.258Z,7.48
2019-03-08T13:00:56.160Z,7.52
2019-03-08T13:01:56.060Z,7.58
2019-03-08T13:02:55.987Z,7.69
2019-03-08T13:03:55.870Z,7.76
2019-03-08T13:04:55.767Z,7.82
2019-03-08T13:05:55.670Z,7.69
2019-03-08T13:06:55.574Z,7.69
2019-03-08T13:07:55.489Z,7.70
2019-03-08T13:08:55.379Z,7.73
2019-03-08T13:09:55.276Z,7.70
2019-03-08T13:10:55.185Z,7.50
2019-03-08T13:11:55.083Z,7.55
2019-03-08T13:12:55.002Z,7.57
2019-03-08T13:13:54.885Z,7.50
2019-03-08T13:14:54.785Z,7.45
2019-03-08T13:15:54.687Z,7.50
2019-03-08T13:16:54.595Z,7.48